Norwegian Epic — C6XP7 — position and weather

sailwx.info

Track history (hours):
 
Tides and Currents Weather Stations Pressure Air Temp Water Temp Dewpoint Dewpoint Depression Visibility Wind Speed Wind Dir Waves Ship Positions

Norwegian Epic

Last reported at 2015-Apr-18 20:31 UTC. Time now 2015-Apr-18 20:47 UTC.
Position N 23°44' W 081°49'.

Length 329 m; draft 9 m.

Type: Passenger vessel. MMSI: 311018500.

Date/timePositionNaut miles runAvg speedWind from/ knotsBaromVisibWave heightAir tempDewpointWater temp
2015-Apr-18 20:31N 23°44' W 081°49'1514.5
2015-Apr-18 19:27N 23°40' W 082°05'1617.4
2015-Apr-18 18:34N 23°36' W 082°22'1817.6
2015-Apr-18 17:34N 23°30' W 082°40'3915.4
2015-Apr-18 15:00N 23°12' W 083°18'16956.4 240 / 101015.410.8 27.0 26.5
2015-Apr-18 12:00N 25°54' W 084°12'29232.4 150 / 101014.0 5.4 23.020.1
2015-Apr-18 03:00N 21°24' W 086°12'6719.3 190 / 401016.410.8 0.527.4 26.7
2015-Apr-17 23:31N 20°32' W 086°58'1 1.4
2015-Apr-17 22:32N 20°31' W 086°57'0 0.0
2015-Apr-17 21:33N 20°31' W 086°57'0 0.0
2015-Apr-17 20:31N 20°31' W 086°57'0 0.0
2015-Apr-17 19:31N 20°31' W 086°57'0 0.0
2015-Apr-17 18:32N 20°31' W 086°57'0 0.0
2015-Apr-17 17:27N 20°31' W 086°57'0 0.0
2015-Apr-17 16:30N 20°31' W 086°57'0 0.0
2015-Apr-17 15:31N 20°31' W 086°57'0 0.0
2015-Apr-17 14:32N 20°31' W 086°57'0 0.4
2015-Apr-17 13:33N 20°30' W 086°58'15320.2
2015-Apr-17 06:00N 20°00' W 084°18'12220.4 130 / 131015.010.8 27.016.426.0
2015-Apr-17 00:00N 19°30' W 082°12'   070 / 181015.010.8 1.026.9 26.9
2015-Apr-13 03:00N 24°54' W 079°42'4411.6 300 / 131018.010.8 0.526.0 26.0
2015-Apr-12 23:12N 25°35' W 080°00'6 9.7
2015-Apr-12 22:33N 25°41' W 080°02'6 6.4
2015-Apr-12 21:33N 25°45' W 080°07'3 2.6
2015-Apr-12 20:28N 25°46' W 080°10'0 0.0
2015-Apr-12 19:28N 25°46' W 080°10'0 0.0
2015-Apr-12 18:26N 25°46' W 080°10'0 0.0
2015-Apr-12 17:33N 25°46' W 080°10'0 0.0
2015-Apr-12 16:33N 25°46' W 080°10'0 0.0
2015-Apr-12 15:31N 25°46' W 080°10'0 0.0
2015-Apr-12 14:32N 25°46' W 080°10'0 0.0
2015-Apr-12 13:29N 25°46' W 080°10'0 0.0
2015-Apr-12 12:27N 25°46' W 080°10'0 0.0
2015-Apr-12 11:13N 25°46' W 080°10'0 0.0
2015-Apr-12 10:31N 25°46' W 080°10'1 1.0
2015-Apr-12 09:33N 25°47' W 080°11'7 7.3
2015-Apr-12 08:33N 25°47' W 080°03'10 9.6
2015-Apr-12 07:33N 25°39' W 079°56'44515.1
2015-Apr-11 02:00N 21°12' W 086°24'4920.1 220 / 291015.110.8 1.527.0 26.5
2015-Apr-10 23:33N 20°34' W 086°57'3 3.1
2015-Apr-10 22:28N 20°31' W 086°57'0 0.0
2015-Apr-10 21:31N 20°31' W 086°57'0 0.0
2015-Apr-10 20:32N 20°31' W 086°57'0 0.0
2015-Apr-10 19:27N 20°31' W 086°57'0 0.0
2015-Apr-10 18:33N 20°31' W 086°57'0 0.0
2015-Apr-10 17:31N 20°31' W 086°57'0 0.0
2015-Apr-10 16:32N 20°31' W 086°57'0 0.0
2015-Apr-10 15:32N 20°31' W 086°57'0 0.4
2015-Apr-10 14:32N 20°30' W 086°58'13520.7
2015-Apr-10 08:00N 20°06' W 084°36'41913.1 060 / 141014.010.8 26.016.926.0
2015-Apr-09 00:00N 18°30' W 077°24'   050 / 251014.0 5.4 1.527.0 26.5
Track history (hours):
 
Tides and Currents Weather Stations Pressure Air Temp Water Temp Dewpoint Dewpoint Depression Visibility Wind Speed Wind Dir Waves Ship Positions

Norwegian Epic

Last reported at 2015-Apr-18 20:31 UTC. Time now 2015-Apr-18 20:47 UTC.
Position N 23°44' W 081°49'.

Length 329 m; draft 9 m.

Type: Passenger vessel. MMSI: 311018500.

Date/timePositionNaut miles runAvg speedWind from/ knotsBaromVisibWave heightAir tempDewpointWater temp
2015-Apr-18 20:31N 23°44' W 081°49'1514.5
2015-Apr-18 19:27N 23°40' W 082°05'1617.4
2015-Apr-18 18:34N 23°36' W 082°22'1817.6
2015-Apr-18 17:34N 23°30' W 082°40'3915.4
2015-Apr-18 15:00N 23°12' W 083°18'16956.4 240 / 101015.410.8 27.0 26.5
2015-Apr-18 12:00N 25°54' W 084°12'29232.4 150 / 101014.0 5.4 23.020.1
2015-Apr-18 03:00N 21°24' W 086°12'6719.3 190 / 401016.410.8 0.527.4 26.7
2015-Apr-17 23:31N 20°32' W 086°58'1 1.4
2015-Apr-17 22:32N 20°31' W 086°57'0 0.0
2015-Apr-17 21:33N 20°31' W 086°57'0 0.0
2015-Apr-17 20:31N 20°31' W 086°57'0 0.0
2015-Apr-17 19:31N 20°31' W 086°57'0 0.0
2015-Apr-17 18:32N 20°31' W 086°57'0 0.0
2015-Apr-17 17:27N 20°31' W 086°57'0 0.0
2015-Apr-17 16:30N 20°31' W 086°57'0 0.0
2015-Apr-17 15:31N 20°31' W 086°57'0 0.0
2015-Apr-17 14:32N 20°31' W 086°57'0 0.4
2015-Apr-17 13:33N 20°30' W 086°58'15320.2
2015-Apr-17 06:00N 20°00' W 084°18'12220.4 130 / 131015.010.8 27.016.426.0
2015-Apr-17 00:00N 19°30' W 082°12'   070 / 181015.010.8 1.026.9 26.9
2015-Apr-13 03:00N 24°54' W 079°42'4411.6 300 / 131018.010.8 0.526.0 26.0
2015-Apr-12 23:12N 25°35' W 080°00'6 9.7
2015-Apr-12 22:33N 25°41' W 080°02'6 6.4
2015-Apr-12 21:33N 25°45' W 080°07'3 2.6
2015-Apr-12 20:28N 25°46' W 080°10'0 0.0
2015-Apr-12 19:28N 25°46' W 080°10'0 0.0
2015-Apr-12 18:26N 25°46' W 080°10'0 0.0
2015-Apr-12 17:33N 25°46' W 080°10'0 0.0
2015-Apr-12 16:33N 25°46' W 080°10'0 0.0
2015-Apr-12 15:31N 25°46' W 080°10'0 0.0
2015-Apr-12 14:32N 25°46' W 080°10'0 0.0
2015-Apr-12 13:29N 25°46' W 080°10'0 0.0
2015-Apr-12 12:27N 25°46' W 080°10'0 0.0
2015-Apr-12 11:13N 25°46' W 080°10'0 0.0
2015-Apr-12 10:31N 25°46' W 080°10'1 1.0
2015-Apr-12 09:33N 25°47' W 080°11'7 7.3
2015-Apr-12 08:33N 25°47' W 080°03'10 9.6
2015-Apr-12 07:33N 25°39' W 079°56'44515.1
2015-Apr-11 02:00N 21°12' W 086°24'4920.1 220 / 291015.110.8 1.527.0 26.5
2015-Apr-10 23:33N 20°34' W 086°57'3 3.1
2015-Apr-10 22:28N 20°31' W 086°57'0 0.0
2015-Apr-10 21:31N 20°31' W 086°57'0 0.0
2015-Apr-10 20:32N 20°31' W 086°57'0 0.0
2015-Apr-10 19:27N 20°31' W 086°57'0 0.0
2015-Apr-10 18:33N 20°31' W 086°57'0 0.0
2015-Apr-10 17:31N 20°31' W 086°57'0 0.0
2015-Apr-10 16:32N 20°31' W 086°57'0 0.0
2015-Apr-10 15:32N 20°31' W 086°57'0 0.4
2015-Apr-10 14:32N 20°30' W 086°58'13520.7
2015-Apr-10 08:00N 20°06' W 084°36'41913.1 060 / 141014.010.8 26.016.926.0
2015-Apr-09 00:00N 18°30' W 077°24'   050 / 251014.0 5.4 1.527.0 26.5

Dump ship's entire track history